createdAt,value
2023-09-09T00:05:18.327Z,6.58
2023-09-09T00:15:17.292Z,6.96
2023-09-09T00:25:16.266Z,7.06
2023-09-09T00:35:15.351Z,11.42
2023-09-09T00:45:14.372Z,7.69
2023-09-09T00:55:13.316Z,6.28
2023-09-09T01:05:12.454Z,8.11
2023-09-09T01:15:11.341Z,6.70
2023-09-09T01:25:10.837Z,6.19
2023-09-09T01:35:09.522Z,10.14
2023-09-09T01:45:08.554Z,7.69
2023-09-09T01:55:07.665Z,8.31
2023-09-09T02:05:07.645Z,5.94
2023-09-09T02:15:06.558Z,6.26
2023-09-09T02:25:05.440Z,8.05
2023-09-09T02:35:04.480Z,7.31
2023-09-09T02:45:03.935Z,6.30
2023-09-09T02:55:02.692Z,5.82
2023-09-09T03:05:01.817Z,6.41
2023-09-09T03:15:00.718Z,7.17
2023-09-09T03:24:59.496Z,9.40
2023-09-09T03:34:58.531Z,7.03
2023-09-09T03:44:59.042Z,7.37
2023-09-09T03:54:58.551Z,4.75
2023-09-09T04:04:57.534Z,6.71
2023-09-09T04:14:56.561Z,6.59
2023-09-09T04:24:55.555Z,4.69
2023-09-09T04:34:54.690Z,7.91
2023-09-09T04:44:53.746Z,6.60
2023-09-09T04:54:52.686Z,4.80
2023-09-09T05:04:51.846Z,5.53
2023-09-09T05:14:50.570Z,9.02
2023-09-09T05:24:49.491Z,10.34
2023-09-09T05:34:48.874Z,12.22
2023-09-09T05:44:47.887Z,10.38
2023-09-09T05:54:46.699Z,8.05
2023-09-09T06:04:45.662Z,8.84
2023-09-09T06:14:44.909Z,8.34
2023-09-09T06:24:44.335Z,8.00
2023-09-09T06:34:43.615Z,8.32
2023-09-09T06:44:42.595Z,8.88
2023-09-09T06:54:41.549Z,11.24
2023-09-09T07:04:40.602Z,6.23
2023-09-09T07:14:41.791Z,11.80
2023-09-09T07:24:40.569Z,10.49
2023-09-09T07:34:39.659Z,6.99
2023-09-09T07:44:38.579Z,7.25
2023-09-09T07:54:37.580Z,7.69
2023-09-09T08:04:36.684Z,8.92
2023-09-09T08:14:35.593Z,9.40
2023-09-09T08:24:34.606Z,7.58
2023-09-09T08:34:33.705Z,8.92
2023-09-09T08:44:32.611Z,8.63
2023-09-09T08:54:31.629Z,12.39
2023-09-09T09:04:30.673Z,13.54
2023-09-09T09:14:30.378Z,13.81
2023-09-09T09:24:30.124Z,20.23
2023-09-09T09:34:28.634Z,25.15
2023-09-09T09:44:27.707Z,33.36
2023-09-09T09:54:26.671Z,57.49
2023-09-09T10:04:25.759Z,20.54
2023-09-09T10:14:24.709Z,18.05
2023-09-09T10:24:23.727Z,19.29
2023-09-09T10:34:22.688Z,17.50
2023-09-09T10:44:21.790Z,15.03
2023-09-09T10:54:20.720Z,22.06
2023-09-09T11:04:20.153Z,15.27
2023-09-09T11:14:18.808Z,16.24
2023-09-09T11:24:17.935Z,11.65
2023-09-09T11:34:16.850Z,7.54
2023-09-09T11:44:15.768Z,6.79
2023-09-09T11:54:14.757Z,6.75
2023-09-09T12:04:14.008Z,6.57
2023-09-09T12:14:12.881Z,8.20
2023-09-09T12:24:11.880Z,9.20
2023-09-09T12:34:10.780Z,11.13
2023-09-09T12:44:10.275Z,9.59
2023-09-09T12:54:08.885Z,7.21
2023-09-09T13:04:07.795Z,7.70
2023-09-09T13:14:13.201Z,13.58
2023-09-09T13:24:07.825Z,22.86
2023-09-09T13:34:06.843Z,14.23
2023-09-09T13:44:05.876Z,21.79
2023-09-09T13:54:04.937Z,35.50
2023-09-09T14:04:03.995Z,50.04
2023-09-09T14:14:02.863Z,48.00
2023-09-09T14:24:01.956Z,46.00
2023-09-09T14:34:00.862Z,45.40
2023-09-09T14:43:59.943Z,34.05
2023-09-09T14:53:58.913Z,29.71
2023-09-09T15:03:58.147Z,31.21
2023-09-09T15:13:56.958Z,27.21
2023-09-09T15:23:55.911Z,31.79
2023-09-09T15:33:55.169Z,24.83
2023-09-09T15:43:54.668Z,26.39
2023-09-09T15:53:53.948Z,24.10
2023-09-09T16:03:53.050Z,26.61
2023-09-09T16:13:52.221Z,24.80
2023-09-09T16:23:50.956Z,26.97
2023-09-09T16:33:50.036Z,21.38
2023-09-09T16:43:49.098Z,26.82
2023-09-09T16:53:47.982Z,30.59
2023-09-09T17:03:47.080Z,27.41
2023-09-09T17:13:46.041Z,32.56
2023-09-09T17:23:45.028Z,29.46
2023-09-09T17:33:44.005Z,26.26
2023-09-09T17:43:43.111Z,17.36
2023-09-09T17:53:42.059Z,17.98
2023-09-09T18:03:41.092Z,7.45
2023-09-09T18:13:40.060Z,8.41
2023-09-09T18:23:39.415Z,11.90
2023-09-09T18:33:39.356Z,16.03
2023-09-09T18:43:38.154Z,9.09
2023-09-09T18:53:37.092Z,11.76
2023-09-09T19:03:36.395Z,9.61
2023-09-09T19:13:35.160Z,14.16
2023-09-09T19:23:34.128Z,12.57
2023-09-09T19:33:33.151Z,9.70
2023-09-09T19:43:32.162Z,9.97
2023-09-09T19:53:31.125Z,9.00
2023-09-09T20:03:30.234Z,13.14
2023-09-09T20:13:29.186Z,14.39
2023-09-09T20:23:28.738Z,13.87
2023-09-09T20:33:27.159Z,25.98
2023-09-09T20:43:26.463Z,26.48
2023-09-09T20:53:25.222Z,11.54
2023-09-09T21:03:24.244Z,12.73
2023-09-09T21:13:23.186Z,14.11
2023-09-09T21:23:22.185Z,18.73
2023-09-09T21:33:21.183Z,21.24
2023-09-09T21:43:20.312Z,12.04
2023-09-09T21:53:19.487Z,13.17
2023-09-09T22:03:18.349Z,15.05
2023-09-09T22:13:17.268Z,11.62
2023-09-09T22:23:16.211Z,9.05
2023-09-09T22:33:15.232Z,9.56
2023-09-09T22:43:14.239Z,10.59
2023-09-09T22:53:13.335Z,11.26
2023-09-09T23:03:12.427Z,10.78
2023-09-09T23:13:11.289Z,11.46
2023-09-09T23:23:10.278Z,16.36
2023-09-09T23:33:09.291Z,15.19
2023-09-09T23:43:08.280Z,11.14
2023-09-09T23:53:07.300Z,13.44
